createdAt,value
2018-05-16T00:00:09.416Z,13.10
2018-05-16T00:02:42.783Z,13.10
2018-05-16T00:05:15.431Z,13.10
2018-05-16T00:07:48.046Z,13.10
2018-05-16T00:10:20.671Z,13.10
2018-05-16T00:12:53.275Z,13.10
2018-05-16T00:15:25.915Z,13.10
2018-05-16T00:17:58.515Z,13.10
2018-05-16T00:20:31.135Z,13.20
2018-05-16T00:23:03.766Z,13.20
2018-05-16T00:25:36.447Z,13.20
2018-05-16T00:28:09.802Z,13.10
2018-05-16T00:30:42.440Z,13.10
2018-05-16T00:33:15.802Z,13.10
2018-05-16T00:35:48.435Z,13.00
2018-05-16T00:38:21.047Z,13.00
2018-05-16T00:40:53.687Z,13.00
2018-05-16T00:43:26.290Z,13.00
2018-05-16T00:45:58.926Z,12.90
2018-05-16T00:48:31.538Z,12.90
2018-05-16T00:51:15.940Z,12.90
2018-05-16T00:53:48.534Z,12.90
2018-05-16T00:56:21.179Z,12.80
2018-05-16T00:58:53.871Z,12.80
2018-05-16T01:01:26.509Z,12.80
2018-05-16T01:03:59.059Z,12.80
2018-05-16T01:06:31.674Z,12.80
2018-05-16T01:09:04.279Z,12.80
2018-05-16T01:11:37.112Z,12.80
2018-05-16T01:14:10.517Z,12.70
2018-05-16T01:16:43.155Z,12.70
2018-05-16T01:19:15.751Z,12.70
2018-05-16T01:21:48.395Z,12.70
2018-05-16T01:24:21.758Z,12.70
2018-05-16T01:26:54.388Z,12.70
2018-05-16T01:29:27.751Z,12.70
2018-05-16T01:32:00.398Z,12.60
2018-05-16T01:34:33.792Z,12.60
2018-05-16T01:37:06.431Z,12.70
2018-05-16T01:39:39.791Z,12.60
2018-05-16T01:42:12.423Z,12.60
2018-05-16T01:44:45.020Z,12.60
2018-05-16T01:47:17.638Z,12.60
2018-05-16T01:49:50.234Z,12.50
2018-05-16T01:52:22.877Z,12.50
2018-05-16T01:54:55.481Z,12.50
2018-05-16T01:57:28.119Z,12.60
2018-05-16T02:00:00.731Z,12.50
2018-05-16T02:02:34.159Z,12.60
2018-05-16T02:05:06.833Z,12.50
2018-05-16T02:07:39.472Z,12.60
2018-05-16T02:10:12.073Z,12.60
2018-05-16T02:12:44.694Z,12.50
2018-05-16T02:15:17.290Z,12.50
2018-05-16T02:17:49.931Z,12.50
2018-05-16T02:20:22.531Z,12.50
2018-05-16T02:22:55.147Z,12.50
2018-05-16T02:25:27.748Z,12.50
2018-05-16T02:28:00.371Z,12.50
2018-05-16T02:30:33.156Z,12.50
2018-05-16T02:33:06.552Z,12.50
2018-05-16T02:35:39.151Z,12.40
2018-05-16T02:38:12.561Z,12.50
2018-05-16T02:40:45.163Z,12.50
2018-05-16T02:43:18.575Z,12.50
2018-05-16T02:45:51.239Z,12.50
2018-05-16T02:48:23.872Z,12.50
2018-05-16T02:50:56.484Z,12.50
2018-05-16T02:53:29.131Z,12.50
2018-05-16T02:56:02.490Z,12.40
2018-05-16T02:58:35.143Z,12.40
2018-05-16T03:01:08.508Z,12.40
2018-05-16T03:03:41.148Z,12.40
2018-05-16T03:06:13.747Z,12.40
2018-05-16T03:08:46.384Z,12.30
2018-05-16T03:11:18.987Z,12.30
2018-05-16T03:13:51.654Z,12.30
2018-05-16T03:16:24.287Z,12.30
2018-05-16T03:18:57.689Z,12.20
2018-05-16T03:21:30.286Z,12.20
2018-05-16T03:24:03.823Z,12.20
2018-05-16T03:26:36.415Z,12.20
2018-05-16T03:29:09.027Z,12.20
2018-05-16T03:31:41.651Z,12.10
2018-05-16T03:34:15.786Z,12.10
2018-05-16T03:36:48.379Z,12.10
2018-05-16T03:39:21.016Z,12.10
2018-05-16T03:41:53.620Z,12.00
2018-05-16T03:44:26.268Z,12.10
2018-05-16T03:46:59.691Z,12.00
2018-05-16T03:49:33.099Z,12.00
2018-05-16T03:52:06.534Z,12.00
2018-05-16T03:54:39.131Z,12.00
2018-05-16T03:57:23.787Z,12.00
2018-05-16T04:00:08.246Z,12.00
2018-05-16T04:02:52.638Z,12.00
2018-05-16T04:05:25.259Z,12.00
2018-05-16T04:07:57.884Z,12.10
2018-05-16T04:10:31.286Z,12.10
2018-05-16T04:13:03.894Z,12.00
2018-05-16T04:15:37.299Z,12.10
2018-05-16T04:18:10.664Z,12.10
2018-05-16T04:20:43.287Z,12.10
2018-05-16T04:23:15.888Z,12.10
2018-05-16T04:25:49.291Z,12.10
2018-05-16T04:28:21.939Z,12.10
2018-05-16T04:30:55.343Z,12.10
2018-05-16T04:33:27.948Z,12.10
2018-05-16T04:36:00.598Z,12.10
2018-05-16T04:38:33.963Z,12.20
2018-05-16T04:41:06.596Z,12.20
2018-05-16T04:43:39.194Z,12.20
2018-05-16T04:46:11.813Z,12.30
2018-05-16T04:48:44.416Z,12.40
2018-05-16T04:51:17.055Z,12.40
2018-05-16T04:53:50.423Z,12.50
2018-05-16T04:56:23.060Z,12.50
2018-05-16T04:58:55.680Z,12.60
2018-05-16T05:01:28.315Z,12.60
2018-05-16T05:04:00.914Z,12.70
2018-05-16T05:06:33.554Z,12.70
2018-05-16T05:09:06.159Z,12.70
2018-05-16T05:11:38.812Z,12.90
2018-05-16T05:14:12.180Z,12.90
2018-05-16T05:16:44.835Z,12.90
2018-05-16T05:19:17.436Z,13.00
2018-05-16T05:21:50.063Z,13.00
2018-05-16T05:24:22.663Z,13.10
2018-05-16T05:26:55.300Z,13.10
2018-05-16T05:29:27.891Z,13.20
2018-05-16T05:32:00.539Z,13.30
2018-05-16T05:34:33.175Z,13.30
2018-05-16T05:37:06.551Z,13.50
2018-05-16T05:39:39.153Z,13.50
2018-05-16T05:42:12.555Z,13.60
2018-05-16T05:44:45.153Z,13.60
2018-05-16T05:47:18.541Z,13.80
2018-05-16T05:49:51.143Z,13.70
2018-05-16T05:52:23.763Z,13.90
2018-05-16T05:54:57.133Z,14.10
2018-05-16T05:57:29.781Z,14.00
2018-05-16T06:00:02.406Z,14.20
2018-05-16T06:02:35.053Z,14.30
2018-05-16T06:05:08.459Z,14.50
2018-05-16T06:07:41.848Z,14.60
2018-05-16T06:10:14.457Z,14.60
2018-05-16T06:12:47.188Z,14.70
2018-05-16T06:15:19.726Z,14.80
2018-05-16T06:17:53.127Z,15.00
2018-05-16T06:20:26.619Z,15.10
2018-05-16T06:22:59.259Z,15.10
2018-05-16T06:25:31.854Z,15.20
2018-05-16T06:28:04.487Z,15.30
2018-05-16T06:30:37.099Z,15.40
2018-05-16T06:33:09.748Z,15.50
2018-05-16T06:35:42.351Z,15.60
2018-05-16T06:38:14.978Z,15.60
2018-05-16T06:40:47.580Z,15.70
2018-05-16T06:43:20.986Z,15.90
2018-05-16T06:45:53.717Z,15.80
2018-05-16T06:48:26.304Z,15.90
2018-05-16T06:50:58.903Z,15.90
2018-05-16T06:53:31.547Z,16.00
2018-05-16T06:56:04.147Z,16.00
2018-05-16T06:58:36.786Z,16.10
2018-05-16T07:01:09.389Z,16.20
2018-05-16T07:03:42.287Z,16.30
2018-05-16T07:06:14.891Z,16.40
2018-05-16T07:08:47.539Z,16.50
2018-05-16T07:11:20.140Z,16.60
2018-05-16T07:13:52.791Z,16.70
2018-05-16T07:16:25.395Z,16.80
2018-05-16T07:18:58.020Z,16.90
2018-05-16T07:21:31.603Z,16.90
2018-05-16T07:24:04.229Z,17.00
2018-05-16T07:26:36.831Z,17.10
2018-05-16T07:29:10.215Z,17.20
2018-05-16T07:31:42.819Z,17.30
2018-05-16T07:34:16.238Z,17.40
2018-05-16T07:36:48.835Z,17.40
2018-05-16T07:39:22.248Z,17.60
2018-05-16T07:41:55.622Z,17.80
2018-05-16T07:44:28.264Z,17.70
2018-05-16T07:47:00.891Z,17.80
2018-05-16T07:49:33.511Z,18.00
2018-05-16T07:52:06.884Z,18.10
2018-05-16T07:54:39.508Z,18.20
2018-05-16T07:57:12.887Z,18.30
2018-05-16T07:59:45.535Z,18.30
2018-05-16T08:02:18.622Z,18.40
2018-05-16T08:04:52.039Z,18.50
2018-05-16T08:07:32.920Z,18.60
2018-05-16T08:10:06.336Z,18.70
2018-05-16T08:12:39.703Z,18.80
2018-05-16T08:15:12.328Z,18.70
2018-05-16T08:17:45.695Z,18.80
2018-05-16T08:20:18.317Z,18.80
2018-05-16T08:22:50.922Z,18.80
2018-05-16T08:25:24.299Z,18.80
2018-05-16T08:27:56.899Z,18.80
2018-05-16T08:30:29.515Z,18.80
2018-05-16T08:33:02.888Z,18.90
2018-05-16T08:35:35.515Z,18.80
2018-05-16T08:38:08.131Z,18.90
2018-05-16T08:40:40.775Z,18.90
2018-05-16T08:43:13.379Z,18.90
2018-05-16T08:45:46.789Z,19.00
2018-05-16T08:48:19.382Z,19.00
2018-05-16T08:50:52.022Z,19.00
2018-05-16T08:53:24.621Z,19.00
2018-05-16T08:55:57.254Z,19.10
2018-05-16T08:58:30.622Z,19.10
2018-05-16T09:01:03.244Z,19.10
2018-05-16T09:03:35.843Z,19.20
2018-05-16T09:06:09.227Z,19.30
2018-05-16T09:08:41.826Z,19.20
2018-05-16T09:11:14.454Z,19.40
2018-05-16T09:13:47.050Z,19.50
2018-05-16T09:16:19.675Z,19.70
2018-05-16T09:18:52.275Z,19.80
2018-05-16T09:21:24.903Z,20.00
2018-05-16T09:23:58.264Z,20.40
2018-05-16T09:26:30.892Z,20.40
2018-05-16T09:29:03.495Z,20.60
2018-05-16T09:31:36.906Z,20.90
2018-05-16T09:34:10.286Z,21.10
2018-05-16T09:36:42.926Z,21.00
2018-05-16T09:39:15.555Z,21.20
2018-05-16T09:41:48.186Z,21.30
2018-05-16T09:44:21.546Z,21.30
2018-05-16T09:46:54.179Z,21.30
2018-05-16T09:49:26.780Z,21.20
2018-05-16T09:52:00.189Z,21.10
2018-05-16T09:54:33.567Z,21.10
2018-05-16T09:57:06.212Z,21.10
2018-05-16T09:59:38.877Z,21.10
2018-05-16T10:02:11.538Z,21.20
2018-05-16T10:04:44.140Z,21.20
2018-05-16T10:07:16.764Z,21.30
2018-05-16T10:09:50.138Z,21.70
2018-05-16T10:12:22.768Z,21.70
2018-05-16T10:14:56.128Z,22.10
2018-05-16T10:17:28.849Z,22.10
2018-05-16T10:20:01.455Z,22.30
2018-05-16T10:22:34.107Z,22.30
2018-05-16T10:25:06.710Z,22.70
2018-05-16T10:27:39.367Z,22.80
2018-05-16T10:30:11.971Z,22.90
2018-05-16T10:32:44.604Z,23.00
2018-05-16T10:35:17.979Z,23.40
2018-05-16T10:37:50.620Z,23.40
2018-05-16T10:40:23.993Z,23.70
2018-05-16T10:42:56.617Z,23.70
2018-05-16T10:45:29.979Z,24.10
2018-05-16T10:48:02.641Z,24.10
2018-05-16T10:50:35.258Z,24.40
2018-05-16T10:53:07.879Z,24.60
2018-05-16T10:55:40.488Z,24.90
2018-05-16T10:58:13.889Z,25.30
2018-05-16T11:00:47.284Z,25.40
2018-05-16T11:03:19.930Z,25.40
2018-05-16T11:05:52.553Z,25.60
2018-05-16T11:08:25.233Z,25.80
2018-05-16T11:10:57.857Z,25.80
2018-05-16T11:13:30.500Z,25.70
2018-05-16T11:16:03.090Z,25.80
2018-05-16T11:18:35.695Z,25.70
2018-05-16T11:21:08.298Z,25.50
2018-05-16T11:23:40.961Z,25.30
2018-05-16T11:26:13.559Z,25.20
2018-05-16T11:28:46.319Z,25.20
2018-05-16T11:31:19.695Z,25.00
2018-05-16T11:33:52.344Z,25.00
2018-05-16T11:36:25.000Z,24.90
2018-05-16T11:38:58.439Z,24.60
2018-05-16T11:41:31.072Z,24.50
2018-05-16T11:44:03.747Z,24.60
2018-05-16T11:46:36.347Z,24.70
2018-05-16T11:49:08.973Z,24.80
2018-05-16T11:51:41.570Z,24.70
2018-05-16T11:54:14.971Z,24.50
2018-05-16T11:56:47.577Z,24.40
2018-05-16T11:59:21.023Z,23.80
2018-05-16T12:01:53.619Z,23.80
2018-05-16T12:04:26.240Z,23.60
2018-05-16T12:06:58.860Z,23.40
2018-05-16T12:09:32.308Z,22.90
2018-05-16T12:12:04.918Z,22.90
2018-05-16T12:14:37.549Z,22.80
2018-05-16T12:17:10.929Z,22.60
2018-05-16T12:19:43.564Z,22.60
2018-05-16T12:22:16.164Z,22.50
2018-05-16T12:24:48.794Z,22.40
2018-05-16T12:27:21.413Z,22.40
2018-05-16T12:29:54.036Z,22.40
2018-05-16T12:32:26.627Z,22.40
2018-05-16T12:34:59.244Z,22.40
2018-05-16T12:37:31.852Z,22.30
2018-05-16T12:40:04.468Z,22.30
2018-05-16T12:42:37.832Z,22.20
2018-05-16T12:45:10.480Z,22.10
2018-05-16T12:47:43.095Z,22.00
2018-05-16T12:50:15.734Z,22.00
2018-05-16T12:52:48.329Z,22.00
2018-05-16T12:55:20.978Z,21.90
2018-05-16T12:57:53.599Z,21.90
2018-05-16T13:00:26.235Z,21.80
2018-05-16T13:02:58.838Z,21.60
2018-05-16T13:05:31.483Z,21.50
2018-05-16T13:08:04.079Z,21.40
2018-05-16T13:10:36.709Z,21.20
2018-05-16T13:13:09.315Z,21.10
2018-05-16T13:15:41.979Z,21.00
2018-05-16T13:18:15.387Z,20.80
2018-05-16T13:20:48.012Z,20.70
2018-05-16T13:23:20.616Z,20.60
2018-05-16T13:25:53.260Z,20.40
2018-05-16T13:28:25.860Z,20.20
2018-05-16T13:30:58.496Z,20.10
2018-05-16T13:33:31.103Z,19.80
2018-05-16T13:36:03.753Z,19.70
2018-05-16T13:38:36.382Z,19.40
2018-05-16T13:41:09.024Z,19.20
2018-05-16T13:43:42.712Z,18.90
2018-05-16T13:46:15.352Z,18.90
2018-05-16T13:48:47.967Z,18.80
2018-05-16T13:51:20.611Z,18.80
2018-05-16T13:53:53.319Z,18.80
2018-05-16T13:56:25.957Z,18.70
2018-05-16T13:58:58.563Z,18.70
2018-05-16T14:01:31.190Z,18.60
2018-05-16T14:04:03.793Z,18.60
2018-05-16T14:06:36.495Z,18.60
2018-05-16T14:09:09.060Z,18.60
2018-05-16T14:11:41.717Z,18.60
2018-05-16T14:14:14.340Z,18.60
2018-05-16T14:16:47.760Z,18.90
2018-05-16T14:19:20.380Z,18.90
2018-05-16T14:21:53.035Z,19.10
2018-05-16T14:24:26.406Z,19.50
2018-05-16T14:26:59.027Z,19.50
2018-05-16T14:29:31.647Z,19.70
2018-05-16T14:32:04.303Z,19.80
2018-05-16T14:34:37.702Z,20.10
2018-05-16T14:37:10.361Z,20.10
2018-05-16T14:39:42.953Z,20.30
2018-05-16T14:42:15.596Z,20.40
2018-05-16T14:44:48.965Z,20.60
2018-05-16T14:47:21.583Z,20.60
2018-05-16T14:49:54.180Z,20.60
2018-05-16T14:52:26.829Z,20.70
2018-05-16T14:55:00.540Z,20.70
2018-05-16T14:57:33.194Z,20.70
2018-05-16T15:00:06.572Z,20.60
2018-05-16T15:02:39.215Z,20.60
2018-05-16T15:05:11.828Z,20.60
2018-05-16T15:07:44.452Z,20.50
2018-05-16T15:10:17.051Z,20.40
2018-05-16T15:12:53.175Z,20.40
2018-05-16T15:15:25.787Z,20.30
2018-05-16T15:17:58.436Z,20.30
2018-05-16T15:20:31.035Z,20.30
2018-05-16T15:23:03.679Z,20.30
2018-05-16T15:25:36.270Z,20.30
2018-05-16T15:28:08.911Z,20.30
2018-05-16T15:30:41.514Z,20.40
2018-05-16T15:33:14.131Z,20.40
2018-05-16T15:35:46.736Z,20.40
2018-05-16T15:38:19.358Z,20.50
2018-05-16T15:40:52.732Z,20.60
2018-05-16T15:43:25.349Z,20.50
2018-05-16T15:45:58.720Z,20.60
2018-05-16T15:48:31.367Z,20.60
2018-05-16T15:51:03.968Z,20.70
2018-05-16T15:53:36.607Z,20.70
2018-05-16T15:56:09.217Z,20.80
2018-05-16T15:58:42.622Z,20.90
2018-05-16T16:01:15.246Z,20.80
2018-05-16T16:03:47.868Z,21.00
2018-05-16T16:06:20.471Z,20.90
2018-05-16T16:08:53.099Z,21.00
2018-05-16T16:11:26.460Z,21.00
2018-05-16T16:13:59.185Z,21.00
2018-05-16T16:16:31.704Z,21.00
2018-05-16T16:19:04.342Z,21.10
2018-05-16T16:21:36.931Z,21.10
2018-05-16T16:24:09.573Z,21.20
2018-05-16T16:26:42.185Z,21.30
2018-05-16T16:29:14.825Z,21.30
2018-05-16T16:31:47.450Z,21.40
2018-05-16T16:34:20.115Z,21.40
2018-05-16T16:36:52.720Z,21.50
2018-05-16T16:39:26.127Z,21.50
2018-05-16T16:41:58.759Z,21.50
2018-05-16T16:44:31.410Z,21.50
2018-05-16T16:47:04.792Z,21.40
2018-05-16T16:49:37.443Z,21.30
2018-05-16T16:52:10.052Z,21.30
2018-05-16T16:54:42.687Z,21.30
2018-05-16T16:57:15.388Z,21.20
2018-05-16T16:59:47.938Z,21.10
2018-05-16T17:02:20.533Z,21.00
2018-05-16T17:04:53.151Z,21.00
2018-05-16T17:07:25.762Z,20.90
2018-05-16T17:09:58.428Z,20.90
2018-05-16T17:12:31.024Z,20.90
2018-05-16T17:15:03.676Z,20.80
2018-05-16T17:17:36.321Z,20.80
2018-05-16T17:20:09.012Z,20.80
2018-05-16T17:22:41.620Z,20.80
2018-05-16T17:25:15.048Z,20.70
2018-05-16T17:27:47.639Z,20.70
2018-05-16T17:30:20.365Z,20.70
2018-05-16T17:32:52.898Z,20.70
2018-05-16T17:35:26.310Z,20.70
2018-05-16T17:37:58.927Z,20.60
2018-05-16T17:40:31.565Z,20.60
2018-05-16T17:43:04.172Z,20.60
2018-05-16T17:45:37.567Z,20.50
2018-05-16T17:48:10.162Z,20.50
2018-05-16T17:50:42.819Z,20.50
2018-05-16T17:53:15.428Z,20.50
2018-05-16T17:55:48.954Z,20.40
2018-05-16T17:58:21.580Z,20.40
2018-05-16T18:00:54.310Z,20.30
2018-05-16T18:03:27.631Z,20.20
2018-05-16T18:06:00.264Z,20.20
2018-05-16T18:08:33.632Z,20.10
2018-05-16T18:11:06.287Z,20.10
2018-05-16T18:13:59.754Z,20.10
2018-05-16T18:16:44.288Z,20.00
2018-05-16T18:19:17.842Z,20.00
2018-05-16T18:21:50.499Z,19.90
2018-05-16T18:24:23.136Z,19.90
2018-05-16T18:26:55.762Z,19.90
2018-05-16T18:29:28.418Z,19.80
2018-05-16T18:32:01.023Z,19.80
2018-05-16T18:34:33.631Z,19.70
2018-05-16T18:37:06.272Z,19.70
2018-05-16T18:39:38.893Z,19.70
2018-05-16T18:42:16.131Z,19.70
2018-05-16T18:44:48.747Z,19.80
2018-05-16T18:47:21.397Z,19.80
2018-05-16T18:49:54.002Z,19.80
2018-05-16T18:52:26.687Z,19.90
2018-05-16T18:54:59.287Z,19.90
2018-05-16T18:57:31.928Z,19.80
2018-05-16T19:00:04.536Z,19.80
2018-05-16T19:02:37.179Z,19.70
2018-05-16T19:05:09.786Z,19.70
2018-05-16T19:07:43.194Z,19.60
2018-05-16T19:10:16.551Z,19.50
2018-05-16T19:12:49.187Z,19.50
2018-05-16T19:15:22.547Z,19.50
2018-05-16T19:17:55.188Z,19.50
2018-05-16T19:20:27.787Z,19.50
2018-05-16T19:23:00.437Z,19.50
2018-05-16T19:25:33.042Z,19.50
2018-05-16T19:28:05.671Z,19.50
2018-05-16T19:30:39.031Z,19.50
2018-05-16T19:33:11.655Z,19.40
2018-05-16T19:35:45.015Z,19.40
2018-05-16T19:38:17.638Z,19.40
2018-05-16T19:40:51.015Z,19.30
2018-05-16T19:43:23.644Z,19.30
2018-05-16T19:45:56.265Z,19.30
2018-05-16T19:48:28.935Z,19.30
2018-05-16T19:51:01.551Z,19.30
2018-05-16T19:53:34.195Z,19.20
2018-05-16T19:56:06.807Z,19.20
2018-05-16T19:58:40.492Z,19.10
2018-05-16T20:01:13.804Z,19.10
2018-05-16T20:03:46.428Z,19.10
2018-05-16T20:06:19.041Z,19.00
2018-05-16T20:08:51.655Z,19.00
2018-05-16T20:11:24.247Z,19.00
2018-05-16T20:13:57.646Z,18.90
2018-05-16T20:16:30.281Z,18.90
2018-05-16T20:19:03.888Z,18.90
2018-05-16T20:21:36.512Z,18.80
2018-05-16T20:24:09.920Z,18.80
2018-05-16T20:26:43.295Z,18.70
2018-05-16T20:29:15.984Z,18.70
2018-05-16T20:31:48.557Z,18.70
2018-05-16T20:34:21.203Z,18.70
2018-05-16T20:36:53.808Z,18.60
2018-05-16T20:39:30.131Z,18.60
2018-05-16T20:42:02.740Z,18.50
2018-05-16T20:44:35.380Z,18.50
2018-05-16T20:47:07.995Z,18.50
2018-05-16T20:49:40.691Z,18.50
2018-05-16T20:52:13.300Z,18.50
2018-05-16T20:54:45.923Z,18.40
2018-05-16T20:57:19.283Z,18.30
2018-05-16T20:59:51.923Z,18.30
2018-05-16T21:02:24.519Z,18.30
2018-05-16T21:04:57.908Z,18.20
2018-05-16T21:07:30.511Z,18.20
2018-05-16T21:10:03.123Z,18.20
2018-05-16T21:12:35.729Z,18.10
2018-05-16T21:15:08.364Z,18.10
2018-05-16T21:17:40.967Z,18.00
2018-05-16T21:20:13.720Z,17.90
2018-05-16T21:22:46.320Z,17.90
2018-05-16T21:25:18.953Z,17.90
2018-05-16T21:27:52.339Z,17.80
2018-05-16T21:30:24.986Z,17.80
2018-05-16T21:32:57.586Z,17.80
2018-05-16T21:35:30.251Z,17.70
2018-05-16T21:38:03.628Z,17.60
2018-05-16T21:40:36.259Z,17.60
2018-05-16T21:43:08.846Z,17.60
2018-05-16T21:45:42.255Z,17.60
2018-05-16T21:48:15.615Z,17.60
2018-05-16T21:50:48.247Z,17.50
2018-05-16T21:53:21.602Z,17.50
2018-05-16T21:55:54.238Z,17.50
2018-05-16T21:58:26.843Z,17.40
2018-05-16T22:01:00.233Z,17.40
2018-05-16T22:03:32.822Z,17.40
2018-05-16T22:06:05.456Z,17.30
2018-05-16T22:08:38.069Z,17.30
2018-05-16T22:11:10.692Z,17.30
2018-05-16T22:13:43.283Z,17.30
2018-05-16T22:16:15.915Z,17.20
2018-05-16T22:18:48.504Z,17.20
2018-05-16T22:21:21.146Z,17.20
2018-05-16T22:23:53.746Z,17.20
2018-05-16T22:26:26.384Z,17.10
2018-05-16T22:28:58.992Z,17.00
2018-05-16T22:31:37.400Z,17.00
2018-05-16T22:34:15.604Z,17.00
2018-05-16T22:36:53.856Z,16.90
2018-05-16T22:39:32.123Z,16.80
2018-05-16T22:42:10.408Z,16.80
2018-05-16T22:44:49.467Z,16.80
2018-05-16T22:47:22.078Z,16.70
2018-05-16T22:49:54.675Z,16.70
2018-05-16T22:52:27.302Z,16.60
2018-05-16T22:55:00.659Z,16.60
2018-05-16T22:57:33.314Z,16.50
2018-05-16T23:00:05.904Z,16.40
2018-05-16T23:02:38.545Z,16.20
2018-05-16T23:05:11.167Z,16.00
2018-05-16T23:07:51.175Z,15.60
2018-05-16T23:10:23.767Z,15.60
2018-05-16T23:12:56.556Z,15.40
2018-05-16T23:15:29.160Z,15.30
2018-05-16T23:18:01.791Z,15.10
2018-05-16T23:20:34.387Z,15.10
2018-05-16T23:23:07.796Z,15.00
2018-05-16T23:25:41.164Z,14.90
2018-05-16T23:28:13.782Z,14.90
2018-05-16T23:30:46.454Z,14.80
2018-05-16T23:33:19.051Z,14.70
2018-05-16T23:35:51.659Z,14.60
2018-05-16T23:38:24.291Z,14.60
2018-05-16T23:40:56.903Z,14.60
2018-05-16T23:43:29.535Z,14.50
2018-05-16T23:46:02.139Z,14.50
2018-05-16T23:48:34.769Z,14.50
2018-05-16T23:51:07.371Z,14.40
2018-05-16T23:53:39.988Z,14.40
2018-05-16T23:56:12.584Z,14.40
2018-05-16T23:58:45.210Z,14.40
